Time;durP1;ratioP1;P1;durP2;ratioP2;P2;SDS_P1;SDS_P2;PMS_P1;PMS_P2;Temp;Humidity;BMP_temperature;BMP_pressure;BME280_temperature;BME280_humidity;BME280_pressure;Samples;Min_cycle;Max_cycle;Signal;HPM_P1;HPM_P2
2021/11/12 00:14:12;;;;;;;63.38;23.40;;;3.00;99.90;;;;;;5064417;28;20291;-78
2021/11/12 00:16:39;;;;;;;58.95;23.55;;;3.00;99.90;;;;;;5070535;28;20222;-78
2021/11/12 00:19:05;;;;;;;58.28;22.92;;;2.90;99.90;;;;;;5071797;28;20207;-76
2021/11/12 00:21:32;;;;;;;62.95;23.48;;;3.00;99.90;;;;;;5069880;28;20263;-77
2021/11/12 00:23:59;;;;;;;62.65;22.50;;;3.00;99.90;;;;;;5069372;28;20194;-78
2021/11/12 00:26:27;;;;;;;53.30;22.40;;;3.10;99.90;;;;;;5069425;28;20257;-77
2021/11/12 00:28:57;;;;;;;66.32;23.15;;;3.10;99.90;;;;;;5069285;28;20297;-77
2021/11/12 00:31:30;;;;;;;59.70;23.15;;;3.00;99.90;;;;;;5069166;28;20249;-77
2021/11/12 00:36:48;;;;;;;56.92;21.65;;;2.90;99.90;;;;;;5069561;28;20669;-76
2021/11/12 00:39:20;;;;;;;63.03;23.60;;;3.00;99.90;;;;;;5069684;28;20599;-78
2021/11/12 00:41:54;;;;;;;60.60;23.40;;;3.00;99.90;;;;;;5068991;28;20587;-78
2021/11/12 00:44:29;;;;;;;64.88;23.80;;;3.10;99.90;;;;;;5069314;28;20221;-78
2021/11/12 00:47:00;;;;;;;57.58;22.83;;;2.90;99.90;;;;;;5069143;28;20287;-77
2021/11/12 00:49:29;;;;;;;59.00;24.55;;;2.90;99.90;;;;;;5069029;28;20539;-77
2021/11/12 00:51:58;;;;;;;59.17;23.45;;;2.90;99.90;;;;;;5068901;28;20684;-77
2021/11/12 00:54:25;;;;;;;70.03;25.10;;;2.90;99.90;;;;;;5068731;28;20230;-77
2021/11/12 00:56:54;;;;;;;54.17;23.35;;;2.70;99.90;;;;;;5068337;28;20221;-77
2021/11/12 00:59:21;;;;;;;56.30;23.05;;;2.80;99.90;;;;;;5068509;28;20198;-77
2021/11/12 01:01:48;;;;;;;52.65;22.42;;;3.00;99.90;;;;;;5068579;28;20493;-78
2021/11/12 01:04:18;;;;;;;56.33;23.05;;;3.00;99.90;;;;;;5067007;28;20688;-76
2021/11/12 01:06:46;;;;;;;55.15;22.83;;;2.80;99.90;;;;;;5055133;28;20229;-76
2021/11/12 01:09:15;;;;;;;58.70;24.73;;;2.80;99.90;;;;;;5054885;28;20214;-76
2021/11/12 01:11:44;;;;;;;58.00;23.33;;;2.80;99.90;;;;;;5054616;28;20306;-76
2021/11/12 01:14:14;;;;;;;59.60;24.20;;;2.60;99.90;;;;;;5054694;28;20219;-76
2021/11/12 01:16:41;;;;;;;57.85;24.42;;;2.70;99.90;;;;;;5054732;28;20309;-77
2021/11/12 01:19:10;;;;;;;49.60;23.10;;;2.70;99.90;;;;;;5054479;28;20211;-77
2021/11/12 01:21:38;;;;;;;61.15;24.08;;;2.80;99.90;;;;;;5054915;28;20206;-77
2021/11/12 01:24:06;;;;;;;60.08;24.48;;;2.90;99.90;;;;;;5055829;28;20211;-77
2021/11/12 01:26:33;;;;;;;52.10;22.48;;;2.90;99.90;;;;;;5056006;28;20271;-78
2021/11/12 01:29:00;;;;;;;57.53;25.38;;;2.90;99.90;;;;;;5055730;28;20209;-76
2021/11/12 01:31:28;;;;;;;58.17;24.10;;;2.90;99.90;;;;;;5056884;28;20293;-76
2021/11/12 01:33:56;;;;;;;49.83;22.15;;;2.90;99.90;;;;;;5056276;28;20222;-76
2021/11/12 01:36:33;;;;;;;50.58;22.10;;;3.00;99.90;;;;;;5058172;28;20257;-77
2021/11/12 01:39:04;;;;;;;47.15;21.77;;;2.90;99.90;;;;;;5057219;28;20240;-76
2021/11/12 01:41:32;;;;;;;59.05;19.70;;;2.90;99.90;;;;;;5037897;28;20195;-78
2021/11/12 01:44:02;;;;;;;45.50;18.55;;;2.60;99.90;;;;;;5051607;28;20238;-77
2021/11/12 01:49:23;;;;;;;61.65;19.42;;;2.60;99.90;;;;;;5061050;28;20208;-76
2021/11/12 01:51:54;;;;;;;53.80;20.30;;;2.50;99.90;;;;;;5059217;28;20595;-77
2021/11/12 01:57:25;;;;;;;56.65;20.52;;;2.40;99.90;;;;;;5037088;28;20219;-77
2021/11/12 01:59:53;;;;;;;49.95;20.67;;;2.40;99.90;;;;;;5057882;28;20225;-77
2021/11/12 02:02:22;;;;;;;51.17;20.80;;;2.50;99.90;;;;;;5056851;28;20214;-76
2021/11/12 02:04:50;;;;;;;55.90;21.30;;;2.50;99.90;;;;;;5056593;28;20289;-76
2021/11/12 02:07:18;;;;;;;54.97;20.92;;;2.30;99.90;;;;;;5055828;28;20230;-76
2021/11/12 02:09:46;;;;;;;49.85;19.38;;;2.40;99.90;;;;;;5056887;28;20214;-76
2021/11/12 02:12:20;;;;;;;48.35;18.83;;;2.40;99.90;;;;;;5056570;28;20215;-75
2021/11/12 02:14:49;;;;;;;55.95;20.38;;;2.30;99.90;;;;;;5055659;28;20230;-76
2021/11/12 02:17:19;;;;;;;46.25;17.77;;;2.30;99.90;;;;;;5055135;28;20258;-77
2021/11/12 02:19:51;;;;;;;56.50;20.05;;;2.30;99.90;;;;;;5055897;28;20204;-77
2021/11/12 02:22:21;;;;;;;60.40;22.50;;;2.40;99.90;;;;;;5054302;28;20270;-76
2021/11/12 02:24:50;;;;;;;64.68;17.95;;;2.30;99.90;;;;;;5054180;28;20210;-75
2021/11/12 02:27:18;;;;;;;48.38;17.85;;;2.30;99.90;;;;;;5034254;28;20732;-77
2021/11/12 02:29:49;;;;;;;50.55;18.83;;;2.30;99.90;;;;;;5047237;28;20237;-78
2021/11/12 02:32:21;;;;;;;49.92;19.25;;;2.40;99.90;;;;;;5053625;28;20214;-76
2021/11/12 02:34:51;;;;;;;63.30;20.20;;;2.30;99.90;;;;;;5054082;28;20485;-77
2021/11/12 02:37:21;;;;;;;45.42;18.33;;;2.30;99.90;;;;;;5053501;28;20245;-77
2021/11/12 02:39:49;;;;;;;62.15;22.58;;;2.40;99.90;;;;;;5053652;28;20236;-77
2021/11/12 02:42:16;;;;;;;45.85;20.92;;;2.30;99.90;;;;;;5054105;28;20210;-76
2021/11/12 02:44:44;;;;;;;46.28;20.67;;;2.40;99.90;;;;;;5055824;28;20202;-77
2021/11/12 02:47:13;;;;;;;49.28;20.95;;;2.50;99.90;;;;;;5056974;28;20250;-77
2021/11/12 02:49:40;;;;;;;49.70;19.45;;;2.50;99.90;;;;;;5053344;28;20747;-77
2021/11/12 02:52:09;;;;;;;54.00;19.20;;;2.50;99.90;;;;;;5053308;28;20214;-76
2021/11/12 02:54:38;;;;;;;50.38;19.80;;;2.40;99.90;;;;;;5053385;28;20222;-76
2021/11/12 02:57:06;;;;;;;49.25;19.73;;;2.40;99.90;;;;;;5053090;28;20314;-77
2021/11/12 02:59:33;;;;;;;43.83;18.65;;;2.50;99.90;;;;;;5052753;28;20213;-76
2021/11/12 03:02:03;;;;;;;51.15;20.13;;;2.60;99.90;;;;;;5053615;28;20634;-75
2021/11/12 03:04:31;;;;;;;45.45;19.13;;;2.50;99.90;;;;;;5053593;28;20245;-77
2021/11/12 03:06:59;;;;;;;44.05;17.73;;;2.40;99.90;;;;;;5053541;28;20724;-76
2021/11/12 03:09:27;;;;;;;55.10;18.40;;;2.30;99.90;;;;;;5052874;28;20726;-76
2021/11/12 03:11:57;;;;;;;48.85;18.73;;;2.30;99.90;;;;;;5053339;28;20205;-76
2021/11/12 03:14:24;;;;;;;50.08;18.92;;;2.20;99.90;;;;;;5053460;28;20352;-76
2021/11/12 03:16:52;;;;;;;49.88;17.88;;;2.20;99.90;;;;;;5053859;28;20317;-76
2021/11/12 03:19:21;;;;;;;45.00;16.67;;;2.20;99.90;;;;;;5053325;28;20575;-76
2021/11/12 03:21:48;;;;;;;43.28;15.93;;;2.20;99.90;;;;;;5052329;28;20202;-76
2021/11/12 03:24:24;;;;;;;40.95;15.75;;;2.10;99.90;;;;;;5052633;28;20202;-76
2021/11/12 03:26:55;;;;;;;47.45;17.10;;;2.10;99.90;;;;;;5052289;28;20280;-75
2021/11/12 03:29:58;;;;;;;53.05;17.25;;;2.10;99.90;;;;;;5052152;28;20213;-77
2021/11/12 04:00:17;;;;;;;37.75;15.35;;;2.00;99.90;;;;;;5051009;28;20677;-75
2021/11/12 04:02:52;;;;;;;46.75;16.48;;;2.00;99.90;;;;;;5051528;28;20207;-76
2021/11/12 04:41:30;;;;;;;38.22;16.13;;;1.90;99.90;;;;;;5072284;28;20194;-76
2021/11/12 04:49:52;;;;;;;46.42;16.13;;;1.80;99.90;;;;;;5067419;28;20431;-75
2021/11/12 05:34:19;;;;;;;42.63;16.33;;;2.10;99.90;;;;;;5054973;28;20225;-76
2021/11/12 05:44:57;;;;;;;40.60;15.80;;;2.10;99.90;;;;;;5054235;28;20260;-76
2021/11/12 05:50:09;;;;;;;38.03;17.35;;;2.20;99.90;;;;;;5031353;28;20198;-77
2021/11/12 05:55:36;;;;;;;32.13;14.15;;;2.20;99.90;;;;;;5011902;28;20750;-77
2021/11/12 05:58:04;;;;;;;33.78;14.13;;;2.30;99.90;;;;;;5012186;28;20216;-77
2021/11/12 06:00:31;;;;;;;34.88;16.48;;;2.30;99.90;;;;;;5030221;28;20202;-77
2021/11/12 06:02:58;;;;;;;29.83;15.73;;;2.30;99.90;;;;;;5054333;28;20203;-76
2021/11/12 06:05:25;;;;;;;26.73;13.93;;;2.20;99.90;;;;;;5054549;28;20202;-76
2021/11/12 06:07:55;;;;;;;35.95;15.23;;;2.00;99.90;;;;;;5056330;28;20645;-76
2021/11/12 06:10:22;;;;;;;30.58;14.23;;;1.80;99.90;;;;;;5055295;28;20288;-77
2021/11/12 06:12:49;;;;;;;33.08;16.92;;;1.90;99.90;;;;;;5056173;28;20302;-77
2021/11/12 06:15:17;;;;;;;30.60;13.98;;;1.90;99.90;;;;;;5056282;28;20291;-76
2021/11/12 06:17:45;;;;;;;32.67;14.80;;;1.90;99.90;;;;;;5055043;28;20317;-77
2021/11/12 06:20:13;;;;;;;31.92;14.23;;;1.90;99.90;;;;;;5054910;28;20241;-77
2021/11/12 06:22:40;;;;;;;30.15;15.77;;;2.00;99.90;;;;;;5054875;28;20244;-76
2021/11/12 06:25:08;;;;;;;25.45;12.95;;;2.00;99.90;;;;;;5056214;28;20202;-76
2021/11/12 06:27:35;;;;;;;33.35;13.77;;;2.00;99.90;;;;;;5059253;28;20210;-77
2021/11/12 06:30:02;;;;;;;29.38;13.90;;;2.00;99.90;;;;;;5057273;28;20305;-76
2021/11/12 06:32:30;;;;;;;32.22;14.20;;;1.90;99.90;;;;;;5058108;28;20226;-76
2021/11/12 06:34:57;;;;;;;32.90;13.85;;;2.00;99.90;;;;;;5057487;28;20297;-76
2021/11/12 06:37:24;;;;;;;32.20;14.57;;;1.90;99.90;;;;;;5056980;28;20233;-76
2021/11/12 06:39:51;;;;;;;24.92;13.02;;;1.90;99.90;;;;;;5056580;28;20218;-77
2021/11/12 06:42:19;;;;;;;33.72;15.90;;;1.90;99.90;;;;;;5056915;28;20210;-76
2021/11/12 06:50:23;;;;;;;32.72;14.98;;;1.80;99.90;;;;;;5053722;28;20221;-76
2021/11/12 06:52:51;;;;;;;32.47;14.88;;;1.80;99.90;;;;;;5057640;28;20271;-78
2021/11/12 06:55:19;;;;;;;27.50;13.45;;;1.80;99.90;;;;;;5055741;28;20227;-77
2021/11/12 06:57:47;;;;;;;27.52;14.77;;;1.80;99.90;;;;;;5057738;28;20284;-76
2021/11/12 07:00:16;;;;;;;28.00;14.00;;;1.80;99.90;;;;;;5073905;28;20202;-79
2021/11/12 07:02:45;;;;;;;29.50;14.13;;;1.90;99.90;;;;;;5075718;28;20213;-78
2021/11/12 07:05:12;;;;;;;32.42;15.02;;;1.90;99.90;;;;;;5075989;28;20190;-77
2021/11/12 07:07:39;;;;;;;28.55;14.02;;;1.90;99.90;;;;;;5070566;28;20227;-74
2021/11/12 07:10:08;;;;;;;27.63;15.65;;;1.70;99.90;;;;;;5061218;28;20298;-75
2021/11/12 07:12:35;;;;;;;34.83;15.85;;;1.70;99.90;;;;;;5058487;28;20289;-75
2021/11/12 07:15:02;;;;;;;29.40;14.90;;;1.70;99.90;;;;;;5061112;28;20313;-76
2021/11/12 07:17:30;;;;;;;32.40;16.40;;;1.80;99.90;;;;;;5062247;28;20285;-77
2021/11/12 07:19:58;;;;;;;31.23;15.57;;;1.90;99.90;;;;;;5062374;28;20232;-74
2021/11/12 07:22:25;;;;;;;29.25;15.07;;;2.00;99.90;;;;;;5067571;28;20519;-74
2021/11/12 07:24:51;;;;;;;33.33;15.63;;;2.10;99.90;;;;;;5055371;28;20266;-75
2021/11/12 07:27:18;;;;;;;28.05;16.10;;;2.00;99.90;;;;;;5062900;28;20314;-76
2021/11/12 07:29:47;;;;;;;31.83;15.68;;;2.10;99.90;;;;;;5052948;28;20309;-75
2021/11/12 07:32:14;;;;;;;29.58;16.33;;;2.00;99.90;;;;;;5053167;28;20203;-76
2021/11/12 07:34:41;;;;;;;24.92;15.27;;;2.00;99.90;;;;;;5052726;28;20276;-76
2021/11/12 07:37:11;;;;;;;28.73;16.95;;;2.10;99.90;;;;;;5053677;28;20226;-76
2021/11/12 07:39:48;;;;;;;25.58;16.40;;;2.20;99.90;;;;;;5055752;28;20203;-76
2021/11/12 07:42:28;;;;;;;29.27;14.55;;;2.20;99.90;;;;;;5052459;28;20246;-76
2021/11/12 07:45:03;;;;;;;24.67;15.18;;;2.30;99.90;;;;;;5043810;28;20194;-76
2021/11/12 07:47:30;;;;;;;24.45;15.10;;;2.40;99.90;;;;;;5052495;28;20229;-76
2021/11/12 07:50:00;;;;;;;26.38;15.27;;;2.40;99.90;;;;;;5052530;28;20214;-76
2021/11/12 07:52:31;;;;;;;24.83;13.93;;;2.40;99.90;;;;;;5052870;28;20267;-77
2021/11/12 07:55:00;;;;;;;26.70;15.35;;;2.50;99.90;;;;;;5052980;28;20309;-76
2021/11/12 07:57:27;;;;;;;21.25;14.25;;;2.50;99.90;;;;;;5047287;28;20231;-76
2021/11/12 07:59:54;;;;;;;30.05;14.95;;;2.60;99.90;;;;;;5060656;28;20214;-77
2021/11/12 08:02:22;;;;;;;22.33;15.38;;;2.70;99.90;;;;;;5059415;28;20684;-76
2021/11/12 08:04:51;;;;;;;20.60;13.52;;;2.70;99.90;;;;;;5037386;28;20205;-76
2021/11/12 08:07:18;;;;;;;21.27;14.50;;;2.50;99.90;;;;;;5046284;28;20633;-76
2021/11/12 08:09:53;;;;;;;32.17;14.90;;;2.50;99.90;;;;;;5052574;28;20234;-76
2021/11/12 08:12:22;;;;;;;27.70;15.20;;;2.60;99.90;;;;;;5052786;28;20210;-76
2021/11/12 08:15:08;;;;;;;30.88;16.48;;;2.40;99.90;;;;;;5050218;28;20210;-76
2021/11/12 08:17:40;;;;;;;26.02;15.07;;;2.50;99.90;;;;;;5045038;28;20214;-77
2021/11/12 08:20:15;;;;;;;25.45;15.13;;;2.50;99.90;;;;;;5056513;28;20282;-75
2021/11/12 08:22:45;;;;;;;23.67;13.40;;;2.40;99.90;;;;;;5056922;28;20207;-75
2021/11/12 08:25:20;;;;;;;24.17;13.70;;;2.40;99.90;;;;;;5058674;28;20309;-76
2021/11/12 08:30:45;;;;;;;26.10;13.82;;;2.60;99.90;;;;;;5056721;28;20208;-77
2021/11/12 08:33:20;;;;;;;24.30;12.80;;;2.40;99.90;;;;;;5056656;28;20206;-77
2021/11/12 08:38:39;;;;;;;23.77;13.45;;;2.40;99.90;;;;;;5057063;28;21044;-75
2021/11/12 08:41:10;;;;;;;29.40;13.73;;;2.40;99.90;;;;;;5057739;28;20556;-76
2021/11/12 08:43:40;;;;;;;23.67;13.52;;;2.50;99.90;;;;;;5066266;28;20238;-77
2021/11/12 08:46:15;;;;;;;23.45;12.48;;;2.50;99.90;;;;;;5063488;28;20226;-78
2021/11/12 08:48:51;;;;;;;25.35;14.55;;;2.60;99.90;;;;;;5062545;28;20200;-78
2021/11/12 08:51:19;;;;;;;23.70;13.57;;;2.60;99.90;;;;;;5078495;28;20281;-75
2021/11/12 08:53:47;;;;;;;27.35;14.38;;;2.50;99.90;;;;;;5061883;28;20297;-76
2021/11/12 08:56:17;;;;;;;27.45;14.15;;;2.20;99.90;;;;;;5054490;28;20262;-74
2021/11/12 08:58:46;;;;;;;26.85;15.57;;;2.10;99.90;;;;;;5054745;28;20213;-73
2021/11/12 09:01:13;;;;;;;36.35;16.90;;;2.10;99.90;;;;;;5053927;28;20289;-74
2021/11/12 09:03:41;;;;;;;28.02;16.27;;;2.10;99.90;;;;;;5054463;28;20662;-74
2021/11/12 09:06:08;;;;;;;28.75;15.75;;;2.10;99.90;;;;;;5054082;28;20238;-73
2021/11/12 09:08:35;;;;;;;27.58;15.05;;;2.20;99.90;;;;;;5054111;28;20210;-75
2021/11/12 09:11:04;;;;;;;41.92;16.85;;;2.20;99.90;;;;;;5054714;28;20217;-74
2021/11/12 09:13:38;;;;;;;27.27;15.77;;;2.20;99.90;;;;;;5054538;28;20206;-73
2021/11/12 09:16:08;;;;;;;31.02;16.60;;;2.40;99.90;;;;;;5052235;28;20257;-73
2021/11/12 09:18:35;;;;;;;31.73;17.33;;;2.70;99.90;;;;;;5053636;28;20724;-72
2021/11/12 09:21:03;;;;;;;28.52;17.15;;;2.60;99.90;;;;;;5035876;28;20305;-73
2021/11/12 09:23:30;;;;;;;25.67;16.00;;;2.70;99.90;;;;;;5038774;28;20233;-74
2021/11/12 09:25:57;;;;;;;32.22;18.00;;;2.80;99.90;;;;;;5054229;28;20297;-73
2021/11/12 09:28:23;;;;;;;24.65;15.80;;;2.90;99.90;;;;;;5054966;28;20542;-72
2021/11/12 09:30:52;;;;;;;27.65;17.25;;;2.90;99.90;;;;;;5052725;28;20289;-75
2021/11/12 09:33:19;;;;;;;25.38;16.23;;;3.00;99.90;;;;;;5056094;28;20211;-73
2021/11/12 09:35:45;;;;;;;26.38;15.27;;;3.10;99.90;;;;;;5054926;28;20688;-74
2021/11/12 09:38:13;;;;;;;26.25;15.15;;;3.20;99.90;;;;;;5054555;28;20590;-74
2021/11/12 09:40:40;;;;;;;23.48;14.57;;;3.30;99.90;;;;;;5054269;28;20231;-73
2021/11/12 09:43:07;;;;;;;24.40;15.73;;;3.10;99.90;;;;;;5055479;28;20200;-75
2021/11/12 09:45:34;;;;;;;21.23;14.43;;;3.10;99.90;;;;;;5042602;28;20208;-75
2021/11/12 09:48:02;;;;;;;21.50;13.02;;;3.00;99.90;;;;;;5034199;28;20218;-74
2021/11/12 09:50:31;;;;;;;22.55;15.40;;;3.10;99.90;;;;;;5053991;28;20200;-74
2021/11/12 09:53:03;;;;;;;22.13;15.40;;;3.00;99.90;;;;;;5059444;28;20213;-75
2021/11/12 09:55:32;;;;;;;25.20;15.80;;;3.10;99.90;;;;;;5065309;28;20230;-76
2021/11/12 09:58:00;;;;;;;22.35;15.82;;;3.20;99.90;;;;;;5059573;28;20214;-79
2021/11/12 10:00:28;;;;;;;28.30;14.27;;;3.20;99.90;;;;;;5062321;28;20224;-78
2021/11/12 10:02:57;;;;;;;30.83;15.90;;;3.40;99.90;;;;;;5062642;28;20238;-77
2021/11/12 10:05:35;;;;;;;21.98;14.48;;;3.60;99.90;;;;;;5064122;28;20796;-79
2021/11/12 10:08:19;;;;;;;24.60;15.38;;;3.60;99.90;;;;;;5064191;28;20203;-79
2021/11/12 10:10:48;;;;;;;22.40;14.90;;;3.50;99.90;;;;;;5064561;28;20202;-80
2021/11/12 10:13:29;;;;;;;24.80;15.88;;;3.50;99.90;;;;;;5062456;28;20280;-81
2021/11/12 10:16:24;;;;;;;22.45;14.85;;;3.50;99.90;;;;;;5061431;28;20235;-78
2021/11/12 10:19:08;;;;;;;23.95;15.35;;;3.50;99.80;;;;;;5056237;28;20206;-79
2021/11/12 10:21:38;;;;;;;24.27;15.18;;;3.60;98.80;;;;;;5061766;28;20221;-78
2021/11/12 10:24:08;;;;;;;24.75;15.75;;;3.40;98.10;;;;;;5063599;28;20203;-80
2021/11/12 10:26:37;;;;;;;20.67;13.77;;;3.50;98.50;;;;;;5063683;28;20218;-79
2021/11/12 10:29:07;;;;;;;22.45;14.27;;;3.70;98.20;;;;;;5064812;28;20206;-78
2021/11/12 10:31:44;;;;;;;24.23;15.05;;;3.80;96.90;;;;;;5064561;28;20221;-81
2021/11/12 10:34:16;;;;;;;22.98;14.40;;;3.80;95.60;;;;;;5068209;28;20212;-79
2021/11/12 10:36:57;;;;;;;23.80;14.55;;;3.50;94.60;;;;;;5073805;28;20395;-78
2021/11/12 10:39:34;;;;;;;18.38;14.18;;;3.60;96.30;;;;;;5064902;28;20215;-79
2021/11/12 10:42:04;;;;;;;21.63;14.80;;;3.70;96.30;;;;;;5069056;28;20443;-78
2021/11/12 10:44:32;;;;;;;24.00;15.20;;;3.60;94.80;;;;;;5074206;28;20237;-79
2021/11/12 10:47:04;;;;;;;22.00;15.90;;;3.60;94.60;;;;;;5070777;28;20298;-78
2021/11/12 10:49:33;;;;;;;20.10;14.68;;;3.40;94.90;;;;;;5068378;28;20225;-78
2021/11/12 10:52:05;;;;;;;24.45;17.05;;;3.40;95.90;;;;;;5082674;28;20202;-76
2021/11/12 10:54:44;;;;;;;28.77;18.08;;;3.40;96.30;;;;;;5077860;28;20197;-75
2021/11/12 10:57:12;;;;;;;29.48;18.30;;;3.50;96.80;;;;;;5072990;28;20331;-78
2021/11/12 10:59:55;;;;;;;27.63;16.67;;;3.60;96.40;;;;;;5073528;28;20226;-79
2021/11/12 11:02:24;;;;;;;25.58;16.42;;;3.70;96.60;;;;;;5071292;28;20215;-79
2021/11/12 11:04:51;;;;;;;30.63;19.35;;;3.60;96.50;;;;;;5070512;28;20260;-78
2021/11/12 11:07:24;;;;;;;25.25;17.25;;;3.70;96.70;;;;;;5068259;28;20235;-78
2021/11/12 11:09:56;;;;;;;23.60;17.17;;;3.90;96.50;;;;;;5072627;28;20263;-77
2021/11/12 11:12:39;;;;;;;23.83;16.13;;;4.00;95.80;;;;;;5068632;28;20254;-78
2021/11/12 11:15:16;;;;;;;27.13;17.48;;;4.10;94.80;;;;;;5068771;28;20201;-79
2021/11/12 11:17:45;;;;;;;28.35;17.80;;;4.10;94.00;;;;;;5063734;28;20244;-79
2021/11/12 11:20:18;;;;;;;29.25;17.45;;;4.10;94.20;;;;;;5063449;28;20225;-80
2021/11/12 11:22:57;;;;;;;25.10;16.95;;;4.20;92.40;;;;;;5064175;28;20233;-78
2021/11/12 11:25:26;;;;;;;29.63;18.38;;;4.10;91.40;;;;;;5073901;28;20200;-76
2021/11/12 11:27:54;;;;;;;32.88;19.67;;;3.70;93.10;;;;;;5074597;28;20217;-80
2021/11/12 11:30:22;;;;;;;30.15;18.35;;;3.80;94.20;;;;;;5074677;28;20209;-76
2021/11/12 11:32:49;;;;;;;30.55;18.30;;;3.90;94.40;;;;;;5072088;28;20217;-78
2021/11/12 11:35:17;;;;;;;30.17;18.23;;;3.90;94.70;;;;;;5069570;28;20240;-79
2021/11/12 11:37:45;;;;;;;31.80;18.77;;;4.00;94.00;;;;;;5070037;28;20282;-78
2021/11/12 11:40:15;;;;;;;28.30;17.83;;;3.60;93.60;;;;;;5067491;28;20258;-77
2021/11/12 11:42:43;;;;;;;30.05;19.20;;;3.80;95.00;;;;;;5069510;28;20239;-77
2021/11/12 11:45:12;;;;;;;30.08;17.33;;;3.90;94.30;;;;;;5067770;28;20211;-79
2021/11/12 11:47:42;;;;;;;29.20;17.33;;;4.00;94.80;;;;;;5066515;28;20228;-79
2021/11/12 11:50:27;;;;;;;36.88;20.45;;;4.00;93.90;;;;;;5064473;28;20204;-79
2021/11/12 11:52:54;;;;;;;29.73;17.65;;;4.00;93.70;;;;;;5054098;28;20236;-79
2021/11/12 11:55:34;;;;;;;34.58;19.48;;;3.90;94.10;;;;;;5064189;28;20367;-80
2021/11/12 11:58:36;;;;;;;32.95;21.38;;;3.90;93.90;;;;;;5045491;28;20244;-80
2021/11/12 12:01:34;;;;;;;34.13;18.90;;;4.00;94.80;;;;;;5036362;28;20209;-78
2021/11/12 12:04:32;;;;;;;34.92;20.05;;;4.00;94.30;;;;;;5046545;28;20529;-79
2021/11/12 16:46:52;;;;;;;45.40;20.88;;;3.70;99.90;;;;;;5046790;28;20235;-79
2021/11/12 16:49:26;;;;;;;43.63;19.95;;;3.80;99.90;;;;;;5042050;28;20207;-80
2021/11/12 17:02:15;;;;;;;35.63;17.98;;;3.70;99.90;;;;;;5065115;23;20268;-77
2021/11/12 17:04:55;;;;;;;36.95;20.02;;;3.70;99.90;;;;;;5051735;28;20220;-76
2021/11/12 17:07:34;;;;;;;49.92;20.52;;;3.70;99.90;;;;;;5050389;28;20216;-77
2021/11/12 17:10:13;;;;;;;37.70;19.48;;;3.80;99.90;;;;;;5054857;28;20233;-75
2021/11/12 17:18:38;;;;;;;36.75;19.70;;;3.90;99.90;;;;;;5036096;28;20232;-76
2021/11/12 17:46:13;;;;;;;36.50;17.95;;;3.90;99.90;;;;;;5036895;28;20294;-76
2021/11/12 17:48:43;;;;;;;41.03;18.55;;;3.80;99.90;;;;;;5034848;28;20212;-76
2021/11/12 17:51:20;;;;;;;40.20;20.30;;;3.90;99.90;;;;;;5034985;28;20240;-75
2021/11/12 18:02:05;;;;;;;39.05;19.48;;;3.70;99.90;;;;;;5049508;28;20237;-76
2021/11/12 18:04:43;;;;;;;38.75;19.27;;;3.70;99.90;;;;;;5051404;28;20200;-76
2021/11/12 18:07:24;;;;;;;39.45;18.80;;;3.70;99.90;;;;;;5047398;28;20215;-76
2021/11/12 21:44:59;;;;;;;28.25;14.13;;;3.30;99.90;;;;;;5033425;28;20202;-77
2021/11/12 21:47:26;;;;;;;23.55;12.38;;;3.20;99.90;;;;;;5033448;28;20206;-76
2021/11/12 21:49:53;;;;;;;20.25;12.63;;;3.10;99.90;;;;;;5034647;28;20207;-77
2021/11/12 21:52:21;;;;;;;25.33;14.48;;;3.10;99.90;;;;;;5033543;28;20203;-76
2021/11/12 21:54:48;;;;;;;31.27;15.18;;;3.10;99.90;;;;;;5034259;28;20281;-76
2021/11/12 21:57:15;;;;;;;30.40;15.25;;;3.10;99.90;;;;;;5033293;28;20340;-76
2021/11/12 21:59:42;;;;;;;28.17;14.07;;;3.20;99.90;;;;;;5034004;28;20212;-76
2021/11/12 22:02:10;;;;;;;27.02;15.82;;;3.30;99.90;;;;;;5033955;28;20247;-76
2021/11/12 22:04:37;;;;;;;26.58;14.68;;;3.20;99.90;;;;;;5034218;28;20207;-76
2021/11/12 22:07:04;;;;;;;29.42;15.82;;;3.20;99.90;;;;;;5034411;28;20223;-75
2021/11/12 22:09:33;;;;;;;25.60;14.55;;;3.20;99.90;;;;;;5033435;28;20302;-75
2021/11/12 22:12:00;;;;;;;29.33;14.18;;;3.20;99.90;;;;;;5033088;28;20219;-75
2021/11/12 22:14:28;;;;;;;25.73;14.77;;;3.20;99.90;;;;;;5033909;28;20666;-76
2021/11/12 22:16:56;;;;;;;29.85;15.27;;;3.20;99.90;;;;;;5034414;28;20202;-76
2021/11/12 22:19:24;;;;;;;28.20;16.25;;;3.20;99.90;;;;;;5035106;28;20311;-76
2021/11/12 22:21:52;;;;;;;25.33;13.25;;;3.20;99.90;;;;;;5034511;28;20318;-75
2021/11/12 22:24:19;;;;;;;30.92;16.75;;;3.30;99.90;;;;;;5034562;28;20195;-75
2021/11/12 22:26:49;;;;;;;26.17;14.95;;;3.20;99.90;;;;;;5034665;28;20301;-75
2021/11/12 22:29:17;;;;;;;26.48;14.68;;;3.30;99.90;;;;;;5034176;28;20198;-75
2021/11/12 22:31:44;;;;;;;29.45;15.25;;;3.20;99.90;;;;;;5035084;28;20231;-75
2021/11/12 22:34:11;;;;;;;25.05;13.40;;;3.20;99.90;;;;;;5033955;28;20320;-74
2021/11/12 22:36:39;;;;;;;30.50;14.73;;;3.20;99.90;;;;;;5035030;28;20719;-74
2021/11/12 22:39:08;;;;;;;34.15;14.43;;;3.20;99.90;;;;;;5035320;28;20227;-74
2021/11/12 22:41:35;;;;;;;25.98;14.77;;;3.30;99.90;;;;;;5035985;28;20655;-74
2021/11/12 22:44:05;;;;;;;26.10;13.70;;;3.30;99.90;;;;;;5036957;28;20212;-74
2021/11/12 22:46:33;;;;;;;29.92;14.65;;;3.30;99.90;;;;;;5038366;28;20208;-74
2021/11/12 22:49:00;;;;;;;30.02;14.93;;;3.30;99.90;;;;;;5047996;28;20212;-75
2021/11/12 22:51:29;;;;;;;28.52;14.52;;;3.30;99.90;;;;;;5049841;28;20241;-74
2021/11/12 22:53:57;;;;;;;21.65;13.48;;;3.30;99.90;;;;;;5052081;28;20213;-75
2021/11/12 22:56:24;;;;;;;28.20;15.68;;;3.30;99.90;;;;;;5051861;28;20203;-75
2021/11/12 22:58:50;;;;;;;24.45;13.82;;;3.20;99.90;;;;;;5052240;28;20234;-74
2021/11/12 23:01:21;;;;;;;26.75;14.13;;;3.20;99.90;;;;;;5177299;22;20231;-75
2021/11/12 23:03:56;;;;;;;31.88;14.77;;;3.10;99.90;;;;;;5045531;28;20185;-75
2021/11/12 23:06:23;;;;;;;25.08;14.45;;;3.20;99.90;;;;;;5056452;28;20190;-75
2021/11/12 23:08:51;;;;;;;21.10;13.70;;;3.30;99.90;;;;;;5051081;28;20213;-75
2021/11/12 23:11:19;;;;;;;24.38;14.30;;;3.20;99.90;;;;;;5045099;28;20751;-74
2021/11/12 23:13:49;;;;;;;23.23;13.20;;;3.20;99.90;;;;;;5047311;28;20199;-75
2021/11/12 23:16:17;;;;;;;25.48;14.15;;;3.10;99.90;;;;;;5035663;28;20200;-74
2021/11/12 23:18:45;;;;;;;24.45;14.43;;;3.20;99.90;;;;;;5032748;28;20225;-76
2021/11/12 23:21:12;;;;;;;31.63;14.20;;;3.20;99.90;;;;;;5033610;28;20314;-75
2021/11/12 23:23:41;;;;;;;22.77;13.40;;;3.10;99.90;;;;;;5034097;28;20298;-74
2021/11/12 23:26:10;;;;;;;25.48;14.13;;;3.10;99.90;;;;;;5036647;28;20237;-75
2021/11/12 23:28:37;;;;;;;21.75;13.15;;;3.10;99.90;;;;;;5037201;28;20205;-76
2021/11/12 23:31:04;;;;;;;26.67;13.50;;;3.20;99.90;;;;;;5042522;28;20255;-75
2021/11/12 23:33:31;;;;;;;23.45;13.30;;;3.20;99.90;;;;;;5040993;28;20234;-76
2021/11/12 23:35:59;;;;;;;26.10;13.63;;;3.30;99.90;;;;;;5042980;28;20603;-75
2021/11/12 23:38:26;;;;;;;22.23;13.43;;;3.30;99.90;;;;;;5039378;28;20282;-76
2021/11/12 23:40:53;;;;;;;24.60;13.95;;;3.30;99.90;;;;;;5042226;28;20315;-76
2021/11/12 23:43:27;;;;;;;24.30;14.02;;;3.30;99.90;;;;;;5046592;28;20238;-76
2021/11/12 23:45:59;;;;;;;25.90;15.00;;;3.30;99.90;;;;;;5048978;28;20219;-75
2021/11/12 23:48:30;;;;;;;27.35;13.43;;;3.30;99.90;;;;;;5055476;28;20211;-76
2021/11/12 23:51:06;;;;;;;22.45;13.77;;;3.20;99.90;;;;;;5055716;28;20229;-77
2021/11/12 23:53:33;;;;;;;24.63;14.13;;;3.20;99.90;;;;;;5051879;28;20199;-77
2021/11/12 23:56:14;;;;;;;24.75;14.50;;;3.10;99.90;;;;;;5107885;28;20572;-76
2021/11/12 23:58:41;;;;;;;25.00;13.75;;;3.10;99.90;;;;;;5105118;28;20224;-77
